createdAt,value
2017-04-02T00:00:39.591Z,0
2017-04-02T00:01:38.477Z,0
2017-04-02T00:02:38.225Z,0
2017-04-02T00:03:53.060Z,0
2017-04-02T00:04:38.598Z,0
2017-04-02T00:05:38.501Z,0
2017-04-02T00:06:38.505Z,0
2017-04-02T00:07:39.266Z,0
2017-04-02T00:08:38.253Z,0
2017-04-02T00:09:38.629Z,0
2017-04-02T00:10:38.642Z,0
2017-04-02T00:11:39.788Z,0
2017-04-02T00:12:38.542Z,0
2017-04-02T00:13:38.025Z,0
2017-04-02T00:14:38.028Z,0
2017-04-02T00:15:38.612Z,0
2017-04-02T00:16:38.254Z,0
2017-04-02T00:17:38.571Z,0
2017-04-02T00:18:38.926Z,0
2017-04-02T00:19:38.684Z,0
2017-04-02T00:20:38.273Z,0
2017-04-02T00:21:38.381Z,0
2017-04-02T00:22:39.234Z,0
2017-04-02T00:23:38.707Z,0
2017-04-02T00:24:38.084Z,0
2017-04-02T00:25:38.352Z,0
2017-04-02T00:26:38.045Z,0
2017-04-02T00:27:38.676Z,0
2017-04-02T00:28:38.681Z,0
2017-04-02T00:29:38.394Z,0
2017-04-02T00:30:37.854Z,0
2017-04-02T00:31:40.326Z,0
2017-04-02T00:32:38.661Z,0
2017-04-02T00:33:54.227Z,0
2017-04-02T00:34:38.665Z,0
2017-04-02T00:35:38.775Z,0
2017-04-02T00:36:38.665Z,0
2017-04-02T00:37:38.735Z,0
2017-04-02T00:38:38.845Z,0
2017-04-02T00:39:38.794Z,0
2017-04-02T00:40:38.488Z,0
2017-04-02T00:41:38.396Z,0
2017-04-02T00:42:40.013Z,0
2017-04-02T00:43:38.764Z,0
2017-04-02T00:44:38.497Z,0
2017-04-02T00:45:38.831Z,0
2017-04-02T00:46:39.656Z,0
2017-04-02T00:47:38.841Z,0
2017-04-02T00:48:38.793Z,0
2017-04-02T00:49:38.750Z,0
2017-04-02T00:50:38.494Z,0
2017-04-02T00:51:38.450Z,0
2017-04-02T00:52:38.504Z,0
2017-04-02T00:53:39.725Z,0
2017-04-02T00:54:38.465Z,0
2017-04-02T00:55:38.883Z,0
2017-04-02T00:56:38.220Z,0
2017-04-02T00:57:40.045Z,0
2017-04-02T00:58:38.904Z,0
2017-04-02T00:59:38.291Z,0
2017-04-02T01:00:38.814Z,0
2017-04-02T01:01:38.193Z,0
2017-04-02T01:02:38.876Z,0
2017-04-02T01:03:38.831Z,0
2017-04-02T01:04:39.487Z,0
2017-04-02T01:05:38.738Z,0
2017-04-02T01:06:38.583Z,0
2017-04-02T01:07:38.591Z,0
2017-04-02T01:08:39.806Z,0
2017-04-02T01:09:38.554Z,0
2017-04-02T01:10:38.972Z,0
2017-04-02T01:11:38.665Z,0
2017-04-02T01:12:39.183Z,0
2017-04-02T01:13:38.887Z,0
2017-04-02T01:14:38.940Z,0
2017-04-02T01:15:38.588Z,0
2017-04-02T01:16:38.281Z,0
2017-04-02T01:17:38.962Z,0
2017-04-02T01:18:38.969Z,0
2017-04-02T01:19:39.471Z,0
2017-04-02T01:20:39.024Z,0
2017-04-02T01:21:38.936Z,0
2017-04-02T01:22:39.089Z,0
2017-04-02T01:23:38.944Z,0
2017-04-02T01:24:38.327Z,0
2017-04-02T01:25:38.696Z,0
2017-04-02T01:26:38.960Z,0
2017-04-02T01:27:39.012Z,0
2017-04-02T01:28:40.274Z,0
2017-04-02T01:29:38.769Z,0
2017-04-02T01:30:39.088Z,0
2017-04-02T01:31:39.045Z,0
2017-04-02T01:32:39.971Z,0
2017-04-02T01:33:39.100Z,0
2017-04-02T01:34:39.105Z,0
2017-04-02T01:35:38.752Z,0
2017-04-02T01:36:39.074Z,0
2017-04-02T01:37:38.813Z,0
2017-04-02T01:38:38.404Z,0
2017-04-02T01:39:40.064Z,0
2017-04-02T01:40:39.091Z,0
2017-04-02T01:41:39.384Z,0
2017-04-02T01:42:39.104Z,0
2017-04-02T01:43:40.728Z,0
2017-04-02T01:44:39.116Z,0
2017-04-02T01:45:38.811Z,0
2017-04-02T01:46:38.817Z,0
2017-04-02T01:47:39.078Z,0
2017-04-02T01:48:39.134Z,0
2017-04-02T01:49:39.097Z,0
2017-04-02T01:50:39.899Z,0
2017-04-02T01:51:38.837Z,0
2017-04-02T01:52:39.195Z,0
2017-04-02T01:53:38.904Z,0
2017-04-02T01:54:40.209Z,0
2017-04-02T01:55:39.175Z,0
2017-04-02T01:56:39.228Z,0
2017-04-02T01:57:38.519Z,0
2017-04-02T01:58:39.138Z,0
2017-04-02T01:59:39.249Z,0
2017-04-02T02:00:38.835Z,0
2017-04-02T02:01:38.852Z,0
2017-04-02T02:02:38.901Z,0
2017-04-02T02:03:53.427Z,0
2017-04-02T02:04:38.969Z,0
2017-04-02T02:05:40.031Z,0
2017-04-02T02:06:38.876Z,0
2017-04-02T02:07:38.931Z,0
2017-04-02T02:08:39.197Z,0
2017-04-02T02:09:39.049Z,0
2017-04-02T02:10:39.258Z,0
2017-04-02T02:11:38.646Z,0
2017-04-02T02:12:38.957Z,0
2017-04-02T02:13:39.882Z,0
2017-04-02T02:14:38.722Z,0
2017-04-02T02:15:39.585Z,0
2017-04-02T02:16:39.850Z,0
2017-04-02T02:17:38.942Z,0
2017-04-02T02:18:38.939Z,0
2017-04-02T02:19:39.256Z,0
2017-04-02T02:20:39.264Z,0
2017-04-02T02:21:38.955Z,0
2017-04-02T02:22:38.698Z,0
2017-04-02T02:23:39.429Z,0
2017-04-02T02:24:39.434Z,0
2017-04-02T02:25:40.325Z,0
2017-04-02T02:26:39.035Z,0
2017-04-02T02:27:39.905Z,0
2017-04-02T02:28:39.041Z,0
2017-04-02T02:29:39.410Z,0
2017-04-02T02:30:39.884Z,0
2017-04-02T02:31:39.015Z,0
2017-04-02T02:32:39.380Z,0
2017-04-02T02:33:53.333Z,0
2017-04-02T02:34:38.858Z,0
2017-04-02T02:35:39.082Z,0
2017-04-02T02:36:38.728Z,0
2017-04-02T02:37:39.458Z,0
2017-04-02T02:38:40.151Z,0
2017-04-02T02:39:39.520Z,0
2017-04-02T02:40:39.311Z,0
2017-04-02T02:41:39.070Z,0
2017-04-02T02:42:39.385Z,0
2017-04-02T02:43:39.442Z,0
2017-04-02T02:44:39.135Z,0
2017-04-02T02:45:39.450Z,0
2017-04-02T02:46:39.146Z,0
2017-04-02T02:47:39.199Z,0
2017-04-02T02:48:38.793Z,0
2017-04-02T02:49:40.276Z,0
2017-04-02T02:50:39.485Z,0
2017-04-02T02:51:39.434Z,0
2017-04-02T02:52:39.494Z,0
2017-04-02T02:53:39.493Z,0
2017-04-02T02:54:39.556Z,0
2017-04-02T02:55:39.556Z,0
2017-04-02T02:56:39.460Z,0
2017-04-02T02:57:39.513Z,0
2017-04-02T02:58:39.522Z,0
2017-04-02T02:59:39.530Z,0
2017-04-02T03:00:39.989Z,0
2017-04-02T03:01:39.592Z,0
2017-04-02T03:02:39.291Z,0
2017-04-02T03:03:54.071Z,0
2017-04-02T03:04:40.161Z,0
2017-04-02T03:05:39.518Z,0
2017-04-02T03:06:39.569Z,0
2017-04-02T03:07:39.314Z,0
2017-04-02T03:08:39.578Z,0
2017-04-02T03:09:39.272Z,0
2017-04-02T03:10:39.595Z,0
2017-04-02T03:11:39.373Z,0
2017-04-02T03:12:39.291Z,0
2017-04-02T03:13:41.164Z,0
2017-04-02T03:14:39.611Z,0
2017-04-02T03:15:39.923Z,0
2017-04-02T03:16:39.624Z,0
2017-04-02T03:17:39.680Z,0
2017-04-02T03:18:39.591Z,0
2017-04-02T03:19:39.590Z,0
2017-04-02T03:20:39.598Z,0
2017-04-02T03:21:39.651Z,0
2017-04-02T03:22:39.333Z,0
2017-04-02T03:23:39.504Z,0
2017-04-02T03:24:41.072Z,0
2017-04-02T03:25:39.623Z,0
2017-04-02T03:26:39.940Z,0
2017-04-02T03:27:39.741Z,0
2017-04-02T03:28:39.689Z,0
2017-04-02T03:29:39.699Z,0
2017-04-02T03:30:39.325Z,0
2017-04-02T03:31:39.707Z,0
2017-04-02T03:32:39.400Z,0
2017-04-02T03:33:39.410Z,0
2017-04-02T03:34:39.411Z,0
2017-04-02T03:35:40.980Z,0
2017-04-02T03:36:39.741Z,0
2017-04-02T03:37:39.817Z,0
2017-04-02T03:38:39.697Z,0
2017-04-02T03:39:39.751Z,0
2017-04-02T03:40:39.807Z,0
2017-04-02T03:41:39.139Z,0
2017-04-02T03:42:39.404Z,0
2017-04-02T03:43:39.719Z,0
2017-04-02T03:44:39.829Z,0
2017-04-02T03:45:39.424Z,0
2017-04-02T03:46:41.269Z,0
2017-04-02T03:47:39.121Z,0
2017-04-02T03:48:40.088Z,0
2017-04-02T03:49:39.595Z,0
2017-04-02T03:50:39.864Z,0
2017-04-02T03:51:39.771Z,0
2017-04-02T03:52:39.978Z,0
2017-04-02T03:53:39.786Z,0
2017-04-02T03:54:39.575Z,0
2017-04-02T03:55:39.482Z,0
2017-04-02T03:56:39.847Z,0
2017-04-02T03:57:40.776Z,0
2017-04-02T03:58:39.955Z,0
2017-04-02T03:59:39.915Z,0
2017-04-02T04:00:39.506Z,0
2017-04-02T04:01:40.799Z,0
2017-04-02T04:02:39.884Z,0
2017-04-02T04:03:39.621Z,0
2017-04-02T04:04:39.935Z,0
2017-04-02T04:05:40.034Z,0
2017-04-02T04:06:39.278Z,0
2017-04-02T04:07:39.842Z,0
2017-04-02T04:08:41.011Z,0
2017-04-02T04:09:40.216Z,0
2017-04-02T04:10:39.922Z,0
2017-04-02T04:11:39.573Z,0
2017-04-02T04:12:41.186Z,0
2017-04-02T04:13:39.889Z,0
2017-04-02T04:14:39.270Z,0
2017-04-02T04:15:39.691Z,0
2017-04-02T04:16:40.006Z,0
2017-04-02T04:17:40.054Z,0
2017-04-02T04:18:39.965Z,0
2017-04-02T04:19:40.770Z,0
2017-04-02T04:20:39.926Z,0
2017-04-02T04:21:40.035Z,0
2017-04-02T04:22:39.631Z,0
2017-04-02T04:23:41.082Z,0
2017-04-02T04:24:39.639Z,0
2017-04-02T04:25:39.993Z,0
2017-04-02T04:26:40.008Z,0
2017-04-02T04:27:39.708Z,0
2017-04-02T04:28:39.972Z,0
2017-04-02T04:29:39.664Z,0
2017-04-02T04:30:40.035Z,0
2017-04-02T04:31:40.088Z,0
2017-04-02T04:32:39.603Z,0
2017-04-02T04:33:54.304Z,0
2017-04-02T04:34:40.888Z,0
2017-04-02T04:35:40.016Z,0
2017-04-02T04:36:39.801Z,0
2017-04-02T04:37:40.177Z,0
2017-04-02T04:38:39.723Z,0
2017-04-02T04:39:40.135Z,0
2017-04-02T04:40:40.147Z,0
2017-04-02T04:41:39.734Z,0
2017-04-02T04:42:40.198Z,0
2017-04-02T04:43:40.077Z,0
2017-04-02T04:44:39.793Z,0
2017-04-02T04:45:40.841Z,0
2017-04-02T04:46:40.070Z,0
2017-04-02T04:47:39.763Z,0
2017-04-02T04:48:40.183Z,0
2017-04-02T04:49:39.826Z,0
2017-04-02T04:50:40.142Z,0
2017-04-02T04:51:39.840Z,0
2017-04-02T04:52:40.206Z,0
2017-04-02T04:53:40.104Z,0
2017-04-02T04:54:40.166Z,0
2017-04-02T04:55:40.322Z,0
2017-04-02T04:56:40.780Z,0
2017-04-02T04:57:40.182Z,0
2017-04-02T04:58:40.015Z,0
2017-04-02T04:59:39.837Z,0
2017-04-02T05:00:40.201Z,0
2017-04-02T05:01:40.206Z,0
2017-04-02T05:02:40.161Z,0
2017-04-02T05:03:39.900Z,0
2017-04-02T05:04:39.911Z,0
2017-04-02T05:05:40.329Z,0
2017-04-02T05:06:40.286Z,0
2017-04-02T05:07:40.874Z,0
2017-04-02T05:08:40.191Z,0
2017-04-02T05:09:40.252Z,0
2017-04-02T05:10:40.248Z,0
2017-04-02T05:11:40.213Z,0
2017-04-02T05:12:40.215Z,0
2017-04-02T05:13:40.221Z,0
2017-04-02T05:14:40.225Z,0
2017-04-02T05:15:39.970Z,0
2017-04-02T05:16:39.977Z,0
2017-04-02T05:17:39.932Z,0
2017-04-02T05:18:40.933Z,0
2017-04-02T05:19:40.302Z,0
2017-04-02T05:20:39.997Z,0
2017-04-02T05:21:40.320Z,0
2017-04-02T05:22:40.318Z,0
2017-04-02T05:23:40.060Z,0
2017-04-02T05:24:39.445Z,0
2017-04-02T05:25:40.125Z,0
2017-04-02T05:26:40.032Z,0
2017-04-02T05:27:40.398Z,0
2017-04-02T05:28:40.305Z,0
2017-04-02T05:29:41.014Z,0
2017-04-02T05:30:40.415Z,0
2017-04-02T05:31:40.108Z,0
2017-04-02T05:32:39.698Z,0
2017-04-02T05:33:56.417Z,0
2017-04-02T05:34:40.340Z,0
2017-04-02T05:35:39.757Z,0
2017-04-02T05:36:40.397Z,0
2017-04-02T05:37:40.402Z,0
2017-04-02T05:38:40.045Z,0
2017-04-02T05:39:40.366Z,0
2017-04-02T05:40:40.859Z,0
2017-04-02T05:41:39.750Z,0
2017-04-02T05:42:40.430Z,0
2017-04-02T05:43:40.390Z,0
2017-04-02T05:44:41.027Z,0
2017-04-02T05:45:40.394Z,0
2017-04-02T05:46:40.147Z,0
2017-04-02T05:47:40.560Z,0
2017-04-02T05:48:40.150Z,0
2017-04-02T05:49:39.529Z,0
2017-04-02T05:50:40.481Z,0
2017-04-02T05:51:40.770Z,0
2017-04-02T05:52:40.439Z,0
2017-04-02T05:53:40.520Z,0
2017-04-02T05:54:40.496Z,0
2017-04-02T05:55:41.253Z,0
2017-04-02T05:56:40.466Z,5
2017-04-02T05:57:40.464Z,5
2017-04-02T05:58:40.207Z,5
2017-04-02T05:59:40.168Z,5
2017-04-02T06:00:40.530Z,5
2017-04-02T06:01:40.486Z,5
2017-04-02T06:02:40.690Z,5
2017-04-02T06:03:40.549Z,5
2017-04-02T06:04:39.976Z,5
2017-04-02T06:05:40.447Z,5
2017-04-02T06:06:40.969Z,5
2017-04-02T06:07:40.520Z,10
2017-04-02T06:08:39.897Z,10
2017-04-02T06:09:40.528Z,10
2017-04-02T06:10:40.637Z,10
2017-04-02T06:11:40.285Z,10
2017-04-02T06:12:40.253Z,10
2017-04-02T06:13:40.289Z,10
2017-04-02T06:14:40.563Z,10
2017-04-02T06:15:41.815Z,10
2017-04-02T06:16:40.576Z,10
2017-04-02T06:17:40.622Z,10
2017-04-02T06:18:40.266Z,10
2017-04-02T06:19:40.640Z,10
2017-04-02T06:20:40.839Z,15
2017-04-02T06:21:40.292Z,15
2017-04-02T06:22:40.746Z,15
2017-04-02T06:23:40.343Z,15
2017-04-02T06:24:40.348Z,20
2017-04-02T06:25:40.356Z,20
2017-04-02T06:26:41.411Z,25
2017-04-02T06:27:40.316Z,25
2017-04-02T06:28:40.213Z,25
2017-04-02T06:29:40.794Z,30
2017-04-02T06:30:41.825Z,30
2017-04-02T06:31:40.749Z,30
2017-04-02T06:32:40.446Z,30
2017-04-02T06:33:40.659Z,30
2017-04-02T06:34:40.043Z,35
2017-04-02T06:35:40.676Z,35
2017-04-02T06:36:39.790Z,35
2017-04-02T06:37:41.739Z,40
2017-04-02T06:38:40.534Z,40
2017-04-02T06:39:40.747Z,45
2017-04-02T06:40:40.703Z,50
2017-04-02T06:41:41.990Z,50
2017-04-02T06:42:40.769Z,50
2017-04-02T06:43:40.766Z,50
2017-04-02T06:44:40.777Z,55
2017-04-02T06:45:40.777Z,55
2017-04-02T06:46:40.742Z,60
2017-04-02T06:47:40.741Z,75
2017-04-02T06:48:41.400Z,105
2017-04-02T06:49:40.802Z,100
2017-04-02T06:50:40.762Z,75
2017-04-02T06:51:40.508Z,65
2017-04-02T06:52:41.265Z,60
2017-04-02T06:53:40.826Z,55
2017-04-02T06:54:40.520Z,55
2017-04-02T06:55:40.790Z,60
2017-04-02T06:56:40.225Z,60
2017-04-02T06:57:40.584Z,60
2017-04-02T06:58:40.544Z,60
2017-04-02T06:59:40.915Z,55
2017-04-02T07:00:41.168Z,60
2017-04-02T07:01:40.518Z,60
2017-04-02T07:02:40.882Z,60
2017-04-02T07:03:41.694Z,60
2017-04-02T07:04:40.580Z,60
2017-04-02T07:05:39.910Z,65
2017-04-02T07:06:40.275Z,65
2017-04-02T07:07:40.869Z,65
2017-04-02T07:08:40.868Z,70
2017-04-02T07:09:40.870Z,70
2017-04-02T07:10:40.877Z,75
2017-04-02T07:11:40.573Z,80
2017-04-02T07:12:42.299Z,80
2017-04-02T07:13:40.630Z,75
2017-04-02T07:14:41.358Z,80
2017-04-02T07:15:40.692Z,80
2017-04-02T07:16:40.910Z,95
2017-04-02T07:17:40.290Z,100
2017-04-02T07:18:40.660Z,100
2017-04-02T07:19:41.025Z,100
2017-04-02T07:20:40.406Z,105
2017-04-02T07:21:40.366Z,105
2017-04-02T07:22:40.680Z,105
2017-04-02T07:23:41.822Z,105
2017-04-02T07:24:40.960Z,105
2017-04-02T07:25:41.202Z,100
2017-04-02T07:26:41.120Z,100
2017-04-02T07:27:42.605Z,100
2017-04-02T07:28:40.990Z,105
2017-04-02T07:29:41.037Z,105
2017-04-02T07:30:41.047Z,110
2017-04-02T07:31:41.040Z,110
2017-04-02T07:32:40.799Z,110
2017-04-02T07:33:40.701Z,110
2017-04-02T07:34:41.914Z,100
2017-04-02T07:35:41.121Z,100
2017-04-02T07:36:41.190Z,100
2017-04-02T07:37:41.049Z,95
2017-04-02T07:38:42.497Z,95
2017-04-02T07:39:41.113Z,100
2017-04-02T07:40:41.162Z,100
2017-04-02T07:41:41.064Z,105
2017-04-02T07:42:40.800Z,110
2017-04-02T07:43:40.760Z,115
2017-04-02T07:44:40.560Z,110
2017-04-02T07:45:41.489Z,110
2017-04-02T07:46:41.095Z,105
2017-04-02T07:47:41.147Z,100
2017-04-02T07:48:41.251Z,100
2017-04-02T07:49:42.347Z,100
2017-04-02T07:50:41.170Z,100
2017-04-02T07:51:41.124Z,105
2017-04-02T07:52:41.128Z,100
2017-04-02T07:53:41.229Z,105
2017-04-02T07:54:41.218Z,110
2017-04-02T07:55:40.884Z,110
2017-04-02T07:56:41.153Z,105
2017-04-02T07:57:41.257Z,105
2017-04-02T07:58:40.963Z,105
2017-04-02T07:59:41.272Z,105
2017-04-02T08:00:42.168Z,110
2017-04-02T08:01:40.923Z,110
2017-04-02T08:02:41.195Z,110
2017-04-02T08:03:41.086Z,105
2017-04-02T08:04:41.202Z,105
2017-04-02T08:05:40.997Z,105
2017-04-02T08:06:41.259Z,105
2017-04-02T08:07:40.957Z,105
2017-04-02T08:08:41.271Z,105
2017-04-02T08:09:41.230Z,105
2017-04-02T08:10:40.972Z,105
2017-04-02T08:11:42.029Z,110
2017-04-02T08:12:41.035Z,110
2017-04-02T08:13:41.306Z,110
2017-04-02T08:14:40.951Z,110
2017-04-02T08:15:41.324Z,110
2017-04-02T08:16:41.322Z,110
2017-04-02T08:17:41.279Z,110
2017-04-02T08:18:41.337Z,105
2017-04-02T08:19:41.073Z,105
2017-04-02T08:20:42.008Z,105
2017-04-02T08:21:41.305Z,100
2017-04-02T08:22:41.853Z,100
2017-04-02T08:23:41.314Z,95
2017-04-02T08:24:41.460Z,100
2017-04-02T08:25:41.013Z,105
2017-04-02T08:26:41.432Z,110
2017-04-02T08:27:41.129Z,115
2017-04-02T08:28:41.346Z,220
2017-04-02T08:29:41.357Z,480
2017-04-02T08:30:41.412Z,590
2017-04-02T08:31:41.470Z,615
2017-04-02T08:32:41.369Z,610
2017-04-02T08:33:41.743Z,635
2017-04-02T08:34:41.127Z,645
2017-04-02T08:35:41.081Z,670
2017-04-02T08:36:41.706Z,670
2017-04-02T08:37:41.304Z,675
2017-04-02T08:38:41.162Z,705
2017-04-02T08:39:41.428Z,710
2017-04-02T08:40:41.180Z,710
2017-04-02T08:41:41.130Z,630
2017-04-02T08:42:41.556Z,415
2017-04-02T08:43:41.461Z,190
2017-04-02T08:44:41.446Z,135
2017-04-02T08:45:41.533Z,130
2017-04-02T08:46:41.277Z,130
2017-04-02T08:47:41.179Z,125
2017-04-02T08:48:41.936Z,125
2017-04-02T08:49:41.509Z,125
2017-04-02T08:50:41.619Z,120
2017-04-02T08:51:41.215Z,120
2017-04-02T08:52:41.421Z,120
2017-04-02T08:53:41.225Z,120
2017-04-02T08:54:41.546Z,115
2017-04-02T08:55:41.704Z,120
2017-04-02T08:56:41.297Z,120
2017-04-02T08:57:43.051Z,120
2017-04-02T08:58:41.623Z,120
2017-04-02T08:59:41.821Z,115
2017-04-02T09:00:41.326Z,115
2017-04-02T09:01:41.332Z,110
2017-04-02T09:02:41.937Z,115
2017-04-02T09:03:41.610Z,115
2017-04-02T09:04:40.997Z,110
2017-04-02T09:05:41.672Z,110
2017-04-02T09:06:41.674Z,110
2017-04-02T09:07:41.683Z,110
2017-04-02T09:08:41.370Z,110
2017-04-02T09:09:41.702Z,105
2017-04-02T09:10:42.154Z,105
2017-04-02T09:11:41.711Z,95
2017-04-02T09:12:41.358Z,95
2017-04-02T09:13:41.417Z,100
2017-04-02T09:14:41.421Z,105
2017-04-02T09:15:41.429Z,105
2017-04-02T09:16:41.383Z,100
2017-04-02T09:17:41.076Z,100
2017-04-02T09:18:41.440Z,100
2017-04-02T09:19:43.012Z,100
2017-04-02T09:20:41.813Z,100
2017-04-02T09:21:41.829Z,100
2017-04-02T09:22:41.568Z,100
2017-04-02T09:23:41.427Z,100
2017-04-02T09:24:41.802Z,95
2017-04-02T09:25:41.171Z,100
2017-04-02T09:26:41.443Z,95
2017-04-02T09:27:41.501Z,85
2017-04-02T09:28:41.825Z,85
2017-04-02T09:29:41.879Z,100
2017-04-02T09:30:43.087Z,105
2017-04-02T09:31:41.581Z,100
2017-04-02T09:32:41.949Z,105
2017-04-02T09:33:41.487Z,105
2017-04-02T09:34:43.271Z,100
2017-04-02T09:35:41.917Z,100
2017-04-02T09:36:41.924Z,100
2017-04-02T09:37:41.831Z,100
2017-04-02T09:38:41.870Z,100
2017-04-02T09:39:41.842Z,90
2017-04-02T09:40:41.896Z,95
2017-04-02T09:41:42.909Z,95
2017-04-02T09:42:41.858Z,90
2017-04-02T09:43:41.867Z,95
2017-04-02T09:44:41.924Z,95
2017-04-02T09:45:42.541Z,90
2017-04-02T09:46:41.887Z,90
2017-04-02T09:47:42.045Z,95
2017-04-02T09:48:41.635Z,90
2017-04-02T09:49:41.905Z,90
2017-04-02T09:50:41.913Z,95
2017-04-02T09:51:41.969Z,75
2017-04-02T09:52:42.760Z,90
2017-04-02T09:53:41.679Z,95
2017-04-02T09:54:41.945Z,110
2017-04-02T09:55:41.627Z,125
2017-04-02T09:56:43.158Z,135
2017-04-02T09:57:41.697Z,115
2017-04-02T09:58:42.118Z,100
2017-04-02T09:59:41.972Z,95
2017-04-02T10:00:41.974Z,90
2017-04-02T10:01:41.410Z,90
2017-04-02T10:02:42.093Z,70
2017-04-02T10:03:42.893Z,65
2017-04-02T10:04:41.691Z,70
2017-04-02T10:05:42.044Z,80
2017-04-02T10:06:42.065Z,75
2017-04-02T10:07:43.475Z,75
2017-04-02T10:08:42.122Z,75
2017-04-02T10:09:41.769Z,75
2017-04-02T10:10:42.038Z,65
2017-04-02T10:11:41.785Z,65
2017-04-02T10:12:41.738Z,65
2017-04-02T10:13:41.746Z,65
2017-04-02T10:14:42.062Z,75
2017-04-02T10:15:42.069Z,80
2017-04-02T10:16:42.074Z,85
2017-04-02T10:17:41.457Z,70
2017-04-02T10:18:42.935Z,80
2017-04-02T10:19:41.831Z,80
2017-04-02T10:20:42.153Z,80
2017-04-02T10:21:41.842Z,85
2017-04-02T10:22:41.849Z,80
2017-04-02T10:23:41.806Z,80
2017-04-02T10:24:42.174Z,80
2017-04-02T10:25:42.233Z,80
2017-04-02T10:26:41.831Z,80
2017-04-02T10:27:42.143Z,80
2017-04-02T10:28:42.259Z,80
2017-04-02T10:29:42.893Z,85
2017-04-02T10:30:42.215Z,85
2017-04-02T10:31:42.171Z,85
2017-04-02T10:32:42.215Z,85
2017-04-02T10:33:42.214Z,85
2017-04-02T10:34:41.977Z,85
2017-04-02T10:35:42.290Z,80
2017-04-02T10:36:41.929Z,85
2017-04-02T10:37:41.269Z,85
2017-04-02T10:38:42.875Z,80
2017-04-02T10:39:41.915Z,80
2017-04-02T10:40:42.686Z,80
2017-04-02T10:41:41.968Z,80
2017-04-02T10:42:42.289Z,80
2017-04-02T10:43:41.977Z,75
2017-04-02T10:44:42.254Z,75
2017-04-02T10:45:42.307Z,75
2017-04-02T10:46:41.951Z,75
2017-04-02T10:47:42.057Z,75
2017-04-02T10:48:42.275Z,70
2017-04-02T10:49:42.881Z,75
2017-04-02T10:50:41.665Z,75
2017-04-02T10:51:42.593Z,75
2017-04-02T10:52:42.350Z,75
2017-04-02T10:53:44.080Z,75
2017-04-02T10:54:42.365Z,70
2017-04-02T10:55:42.155Z,70
2017-04-02T10:56:42.111Z,60
2017-04-02T10:57:42.387Z,70
2017-04-02T10:58:42.020Z,70
2017-04-02T10:59:42.343Z,70
2017-04-02T11:00:41.464Z,70
2017-04-02T11:01:42.356Z,70
2017-04-02T11:02:42.512Z,70
2017-04-02T11:03:42.053Z,70
2017-04-02T11:04:44.031Z,70
2017-04-02T11:05:42.158Z,70
2017-04-02T11:06:42.069Z,55
2017-04-02T11:07:42.396Z,65
2017-04-02T11:08:42.090Z,65
2017-04-02T11:09:42.463Z,55
2017-04-02T11:10:42.411Z,50
2017-04-02T11:11:42.258Z,50
2017-04-02T11:12:42.475Z,50
2017-04-02T11:13:42.532Z,50
2017-04-02T11:14:42.176Z,55
2017-04-02T11:15:43.768Z,65
2017-04-02T11:16:42.142Z,55
2017-04-02T11:17:42.754Z,50
2017-04-02T11:18:42.305Z,65
2017-04-02T11:19:42.155Z,60
2017-04-02T11:20:42.472Z,65
2017-04-02T11:21:42.216Z,65
2017-04-02T11:22:42.489Z,65
2017-04-02T11:23:42.545Z,65
2017-04-02T11:24:42.232Z,65
2017-04-02T11:25:42.193Z,55
2017-04-02T11:26:43.653Z,65
2017-04-02T11:27:42.259Z,65
2017-04-02T11:28:42.263Z,60
2017-04-02T11:29:42.576Z,60
2017-04-02T11:30:42.534Z,55
2017-04-02T11:31:42.544Z,55
2017-04-02T11:32:42.547Z,50
2017-04-02T11:33:42.601Z,50
2017-04-02T11:34:42.617Z,65
2017-04-02T11:35:41.996Z,65
2017-04-02T11:36:42.257Z,65
2017-04-02T11:37:43.417Z,65
2017-04-02T11:38:42.581Z,65
2017-04-02T11:39:42.385Z,60
2017-04-02T11:40:42.606Z,55
2017-04-02T11:41:42.290Z,65
2017-04-02T11:42:42.708Z,65
2017-04-02T11:43:42.612Z,70
2017-04-02T11:44:42.732Z,70
2017-04-02T11:45:42.625Z,65
2017-04-02T11:46:42.369Z,65
2017-04-02T11:47:42.638Z,60
2017-04-02T11:48:43.342Z,55
2017-04-02T11:49:42.754Z,65
2017-04-02T11:50:42.497Z,65
2017-04-02T11:51:42.039Z,65
2017-04-02T11:52:42.461Z,55
2017-04-02T11:53:42.046Z,55
2017-04-02T11:54:42.682Z,60
2017-04-02T11:55:42.693Z,65
2017-04-02T11:56:42.745Z,65
2017-04-02T11:57:42.389Z,65
2017-04-02T11:58:42.435Z,55
2017-04-02T11:59:43.262Z,50
2017-04-02T12:00:42.462Z,60
2017-04-02T12:01:42.731Z,60
2017-04-02T12:02:42.778Z,60
2017-04-02T12:03:43.424Z,60
2017-04-02T12:04:42.808Z,55
2017-04-02T12:05:42.801Z,50
2017-04-02T12:06:42.854Z,45
2017-04-02T12:07:42.186Z,45
2017-04-02T12:08:42.816Z,60
2017-04-02T12:09:42.509Z,55
2017-04-02T12:10:42.982Z,55
2017-04-02T12:11:42.574Z,60
2017-04-02T12:12:44.361Z,60
2017-04-02T12:13:42.541Z,60
2017-04-02T12:14:42.793Z,60
2017-04-02T12:15:42.862Z,60
2017-04-02T12:16:42.865Z,60
2017-04-02T12:17:42.567Z,60
2017-04-02T12:18:42.208Z,60
2017-04-02T12:19:42.836Z,60
2017-04-02T12:20:42.890Z,60
2017-04-02T12:21:42.535Z,60
2017-04-02T12:22:42.859Z,60
2017-04-02T12:23:44.065Z,60
2017-04-02T12:24:42.916Z,60
2017-04-02T12:25:42.922Z,60
2017-04-02T12:26:42.564Z,55
2017-04-02T12:27:42.570Z,55
2017-04-02T12:28:42.626Z,45
2017-04-02T12:29:42.581Z,45
2017-04-02T12:30:42.901Z,45
2017-04-02T12:31:42.907Z,45
2017-04-02T12:32:42.599Z,45
2017-04-02T12:33:42.709Z,45
2017-04-02T12:34:44.228Z,45
2017-04-02T12:35:43.071Z,55
2017-04-02T12:36:42.989Z,55
2017-04-02T12:37:42.728Z,55
2017-04-02T12:38:42.650Z,55
2017-04-02T12:39:42.693Z,50
2017-04-02T12:40:42.388Z,55
2017-04-02T12:41:42.344Z,55
2017-04-02T12:42:42.398Z,55
2017-04-02T12:43:43.030Z,45
2017-04-02T12:44:42.722Z,50
2017-04-02T12:45:43.992Z,55
2017-04-02T12:46:43.044Z,55
2017-04-02T12:47:43.002Z,50
2017-04-02T12:48:42.694Z,50
2017-04-02T12:49:42.761Z,45
2017-04-02T12:50:42.455Z,40
2017-04-02T12:51:43.123Z,40
2017-04-02T12:52:43.134Z,50
2017-04-02T12:53:43.099Z,50
2017-04-02T12:54:43.048Z,50
2017-04-02T12:55:43.100Z,50
2017-04-02T12:56:43.910Z,50
2017-04-02T12:57:43.166Z,50
2017-04-02T12:58:43.125Z,50
2017-04-02T12:59:43.129Z,50
2017-04-02T13:00:44.138Z,50
2017-04-02T13:01:42.776Z,40
2017-04-02T13:02:42.835Z,45
2017-04-02T13:03:42.524Z,40
2017-04-02T13:04:42.899Z,45
2017-04-02T13:05:43.165Z,40
2017-04-02T13:06:42.805Z,40
2017-04-02T13:07:43.462Z,40
2017-04-02T13:08:42.506Z,40
2017-04-02T13:09:42.875Z,40
2017-04-02T13:10:43.250Z,40
2017-04-02T13:11:44.141Z,40
2017-04-02T13:12:43.156Z,40
2017-04-02T13:13:42.849Z,45
2017-04-02T13:14:43.273Z,55
2017-04-02T13:15:43.226Z,55
2017-04-02T13:16:43.179Z,55
2017-04-02T13:17:43.193Z,55
2017-04-02T13:18:44.091Z,55
2017-04-02T13:19:43.249Z,55
2017-04-02T13:20:43.141Z,55
2017-04-02T13:21:43.112Z,55
2017-04-02T13:22:44.404Z,55
2017-04-02T13:23:43.220Z,55
2017-04-02T13:24:42.916Z,55
2017-04-02T13:25:42.988Z,55
2017-04-02T13:26:43.239Z,55
2017-04-02T13:27:43.351Z,55
2017-04-02T13:28:43.256Z,55
2017-04-02T13:29:42.944Z,55
2017-04-02T13:30:43.267Z,50
2017-04-02T13:31:43.298Z,50
2017-04-02T13:32:43.013Z,50
2017-04-02T13:33:44.684Z,50
2017-04-02T13:34:43.334Z,50
2017-04-02T13:35:43.027Z,50
2017-04-02T13:36:43.306Z,50
2017-04-02T13:37:43.049Z,50
2017-04-02T13:38:42.743Z,50
2017-04-02T13:39:43.326Z,45
2017-04-02T13:40:42.808Z,50
2017-04-02T13:41:43.022Z,50
2017-04-02T13:42:43.642Z,50
2017-04-02T13:43:43.394Z,55
2017-04-02T13:44:44.467Z,55
2017-04-02T13:45:43.466Z,50
2017-04-02T13:46:43.471Z,50
2017-04-02T13:47:43.106Z,50
2017-04-02T13:48:43.106Z,50
2017-04-02T13:49:43.485Z,55
2017-04-02T13:50:43.124Z,55
2017-04-02T13:51:43.793Z,55
2017-04-02T13:52:43.396Z,50
2017-04-02T13:53:45.083Z,50
2017-04-02T13:54:43.546Z,50
2017-04-02T13:55:44.288Z,50
2017-04-02T13:56:43.507Z,50
2017-04-02T13:57:43.665Z,50
2017-04-02T13:58:43.472Z,50
2017-04-02T13:59:43.539Z,50
2017-04-02T14:00:43.295Z,50
2017-04-02T14:01:43.192Z,50
2017-04-02T14:02:44.518Z,50
2017-04-02T14:03:43.284Z,50
2017-04-02T14:04:43.689Z,50
2017-04-02T14:05:43.178Z,50
2017-04-02T14:06:43.534Z,50
2017-04-02T14:07:43.322Z,50
2017-04-02T14:08:43.279Z,55
2017-04-02T14:09:45.375Z,50
2017-04-02T14:10:43.245Z,50
2017-04-02T14:11:46.508Z,50
2017-04-02T14:12:43.574Z,50
2017-04-02T14:13:43.524Z,50
2017-04-02T14:14:43.700Z,50
2017-04-02T14:15:43.643Z,50
2017-04-02T14:16:43.049Z,50
2017-04-02T14:17:43.648Z,50
2017-04-02T14:18:43.167Z,50
2017-04-02T14:19:43.969Z,50
2017-04-02T14:20:43.704Z,50
2017-04-02T14:21:43.648Z,50
2017-04-02T14:22:43.729Z,45
2017-04-02T14:23:43.697Z,45